Geeville, Mississippi
Current Conditions -  °F | °C
As of 9:53 PM on Friday 19 Dec 2014 (Local Time) from KTUP Reporting Station
Light Rain Light Rain  
Wind Chill: 36°   Ceiling: 6500
Heat Index: 40°   Visibility: 10mi
Dew Point: 35°   Wind: 6mph
Humidity: 83%   Direction: 60°ENE
Pressure: 30.21"   Gusts: NA
Location:  34.5357°N, 88.6348°W
Report Text: KTUP 200353Z AUTO 06005KT 10SM -RA OVC065 04/02 A3021 RMK AO2 RAB48 SLP231 P0000 T00440017
Loading
Personal Weather Stations






























Interactive Weather Map New forecast layout! Learn more

10-Day Weather Forecast

Advertisements
Track Severe Weather on mobile